sensor_id;sensor_type;location;lat;lon;timestamp;pressure;altitude;pressure_sealevel;temperature;humidity
37020;BME280;22932;52.442;16.896;2022-12-18T00:01:31;102167.45;;;-4.66;87.76
37020;BME280;22932;52.442;16.896;2022-12-18T00:04:02;102168.33;;;-4.72;87.67
37020;BME280;22932;52.442;16.896;2022-12-18T00:06:33;102169.03;;;-4.74;87.89
37020;BME280;22932;52.442;16.896;2022-12-18T00:09:04;102167.44;;;-4.75;88.03
37020;BME280;22932;52.442;16.896;2022-12-18T00:11:34;102171.48;;;-4.73;88.29
37020;BME280;22932;52.442;16.896;2022-12-18T00:14:03;102170.08;;;-4.74;88.22
37020;BME280;22932;52.442;16.896;2022-12-18T00:16:33;102167.98;;;-4.71;88.42
37020;BME280;22932;52.442;16.896;2022-12-18T00:19:05;102173.77;;;-4.72;88.11
37020;BME280;22932;52.442;16.896;2022-12-18T00:21:35;102172.19;;;-4.74;88.18
37020;BME280;22932;52.442;16.896;2022-12-18T00:24:05;102176.23;;;-4.73;88.13
37020;BME280;22932;52.442;16.896;2022-12-18T00:26:37;102181.86;;;-4.73;88.29
37020;BME280;22932;52.442;16.896;2022-12-18T00:29:10;102179.92;;;-4.73;88.30
37020;BME280;22932;52.442;16.896;2022-12-18T00:31:42;102175.70;;;-4.72;88.50
37020;BME280;22932;52.442;16.896;2022-12-18T00:34:13;102180.09;;;-4.72;88.47
37020;BME280;22932;52.442;16.896;2022-12-18T00:36:43;102182.91;;;-4.72;88.38
37020;BME280;22932;52.442;16.896;2022-12-18T00:39:13;102186.08;;;-4.76;88.20
37020;BME280;22932;52.442;16.896;2022-12-18T00:41:42;102185.02;;;-4.79;88.13
37020;BME280;22932;52.442;16.896;2022-12-18T00:44:29;102191.00;;;-4.81;88.23
37020;BME280;22932;52.442;16.896;2022-12-18T00:46:58;102190.65;;;-4.80;88.53
37020;BME280;22932;52.442;16.896;2022-12-18T00:49:28;102201.55;;;-4.81;88.24
37020;BME280;22932;52.442;16.896;2022-12-18T00:51:57;102207.17;;;-4.81;88.45
37020;BME280;22932;52.442;16.896;2022-12-18T00:54:27;102204.35;;;-4.84;88.04
37020;BME280;22932;52.442;16.896;2022-12-18T00:56:56;102205.92;;;-4.86;88.12
37020;BME280;22932;52.442;16.896;2022-12-18T00:59:26;102209.63;;;-4.84;88.36
37020;BME280;22932;52.442;16.896;2022-12-18T01:01:55;102211.55;;;-4.84;88.40
37020;BME280;22932;52.442;16.896;2022-12-18T01:04:25;102217.00;;;-4.85;88.37
37020;BME280;22932;52.442;16.896;2022-12-18T01:06:54;102225.42;;;-4.87;88.26
37020;BME280;22932;52.442;16.896;2022-12-18T01:09:24;102239.13;;;-4.91;88.26
37020;BME280;22932;52.442;16.896;2022-12-18T01:11:53;102240.35;;;-4.95;88.12
37020;BME280;22932;52.442;16.896;2022-12-18T01:14:23;102237.89;;;-4.98;88.22
37020;BME280;22932;52.442;16.896;2022-12-18T01:16:52;102240.88;;;-4.99;88.06
37020;BME280;22932;52.442;16.896;2022-12-18T01:19:22;102240.88;;;-5.01;88.20
37020;BME280;22932;52.442;16.896;2022-12-18T07:06:04;102527.41;;;-6.47;89.26
37020;BME280;22932;52.442;16.896;2022-12-18T07:08:35;102534.00;;;-6.52;89.07
37020;BME280;22932;52.442;16.896;2022-12-18T07:11:06;102535.86;;;-6.57;89.00
37020;BME280;22932;52.442;16.896;2022-12-18T07:13:35;102539.15;;;-6.60;89.09
37020;BME280;22932;52.442;16.896;2022-12-18T07:16:12;102535.94;;;-6.64;89.28
37020;BME280;22932;52.442;16.896;2022-12-18T07:18:42;102538.36;;;-6.67;89.23
37020;BME280;22932;52.442;16.896;2022-12-18T07:21:14;102540.60;;;-6.69;89.31
37020;BME280;22932;52.442;16.896;2022-12-18T07:23:44;102539.71;;;-6.70;89.52
37020;BME280;22932;52.442;16.896;2022-12-18T07:26:17;102540.77;;;-6.69;89.52
37020;BME280;22932;52.442;16.896;2022-12-18T07:28:48;102541.45;;;-6.71;89.48
37020;BME280;22932;52.442;16.896;2022-12-18T07:31:19;102541.96;;;-6.73;89.43
37020;BME280;22932;52.442;16.896;2022-12-18T07:33:50;102544.20;;;-6.75;89.47
37020;BME280;22932;52.442;16.896;2022-12-18T07:36:20;102552.59;;;-6.77;89.33
37020;BME280;22932;52.442;16.896;2022-12-18T07:38:50;102562.38;;;-6.78;89.27
37020;BME280;22932;52.442;16.896;2022-12-18T07:41:21;102570.59;;;-6.80;89.27
37020;BME280;22932;52.442;16.896;2022-12-18T07:43:50;102573.38;;;-6.80;89.52
37020;BME280;22932;52.442;16.896;2022-12-18T07:46:20;102583.77;;;-6.76;89.73
37020;BME280;22932;52.442;16.896;2022-12-18T07:48:49;102587.52;;;-6.72;89.96
37020;BME280;22932;52.442;16.896;2022-12-18T07:51:19;102586.21;;;-6.66;90.02
37020;BME280;22932;52.442;16.896;2022-12-18T07:53:48;102590.30;;;-6.62;89.93
37020;BME280;22932;52.442;16.896;2022-12-18T07:56:18;102598.07;;;-6.58;90.07
37020;BME280;22932;52.442;16.896;2022-12-18T07:58:47;102597.76;;;-6.55;89.95
37020;BME280;22932;52.442;16.896;2022-12-18T08:01:17;102604.59;;;-6.56;89.65
37020;BME280;22932;52.442;16.896;2022-12-18T08:03:46;102604.77;;;-6.55;89.74
37020;BME280;22932;52.442;16.896;2022-12-18T08:06:16;102608.48;;;-6.52;89.91
37020;BME280;22932;52.442;16.896;2022-12-18T08:08:45;102613.79;;;-6.50;89.81
37020;BME280;22932;52.442;16.896;2022-12-18T08:11:15;102616.60;;;-6.50;89.86
37020;BME280;22932;52.442;16.896;2022-12-18T08:13:44;102612.57;;;-6.50;89.71
37020;BME280;22932;52.442;16.896;2022-12-18T08:16:14;102623.61;;;-6.50;89.71
37020;BME280;22932;52.442;16.896;2022-12-18T08:18:43;102625.71;;;-6.50;89.76
37020;BME280;22932;52.442;16.896;2022-12-18T08:21:14;102626.21;;;-6.51;89.69
37020;BME280;22932;52.442;16.896;2022-12-18T08:23:44;102626.55;;;-6.53;89.69
37020;BME280;22932;52.442;16.896;2022-12-18T08:26:14;102621.81;;;-6.52;89.84
37020;BME280;22932;52.442;16.896;2022-12-18T08:28:44;102618.66;;;-6.52;89.98
37020;BME280;22932;52.442;16.896;2022-12-18T08:31:14;102619.91;;;-6.51;90.02
37020;BME280;22932;52.442;16.896;2022-12-18T08:33:44;102618.89;;;-6.49;90.08
37020;BME280;22932;52.442;16.896;2022-12-18T08:36:13;102619.08;;;-6.47;90.13
37020;BME280;22932;52.442;16.896;2022-12-18T08:38:43;102620.14;;;-6.47;90.14
37020;BME280;22932;52.442;16.896;2022-12-18T08:41:14;102617.17;;;-6.45;90.11
37020;BME280;22932;52.442;16.896;2022-12-18T08:43:43;102616.16;;;-6.42;90.16
37020;BME280;22932;52.442;16.896;2022-12-18T08:46:38;102616.20;;;-6.40;90.12
37020;BME280;22932;52.442;16.896;2022-12-18T08:49:08;102605.88;;;-6.39;90.09
37020;BME280;22932;52.442;16.896;2022-12-18T08:51:39;102601.34;;;-6.37;90.15
37020;BME280;22932;52.442;16.896;2022-12-18T08:54:09;102598.23;;;-6.34;90.12
37020;BME280;22932;52.442;16.896;2022-12-18T08:56:40;102595.80;;;-6.32;90.13
37020;BME280;22932;52.442;16.896;2022-12-18T08:59:09;102590.38;;;-6.30;90.01
37020;BME280;22932;52.442;16.896;2022-12-18T09:01:39;102586.03;;;-6.29;90.23
37020;BME280;22932;52.442;16.896;2022-12-18T09:04:09;102576.21;;;-6.27;90.12
37020;BME280;22932;52.442;16.896;2022-12-18T09:06:38;102572.73;;;-6.26;90.15
37020;BME280;22932;52.442;16.896;2022-12-18T09:09:08;102569.77;;;-6.24;90.18
37020;BME280;22932;52.442;16.896;2022-12-18T09:11:38;102574.38;;;-6.21;90.16
37020;BME280;22932;52.442;16.896;2022-12-18T09:14:08;102579.00;;;-6.16;90.41
37020;BME280;22932;52.442;16.896;2022-12-18T09:16:37;102586.23;;;-6.12;90.39
37020;BME280;22932;52.442;16.896;2022-12-18T09:19:06;102588.01;;;-6.11;90.23
37020;BME280;22932;52.442;16.896;2022-12-18T09:21:39;102588.86;;;-6.13;89.93
37020;BME280;22932;52.442;16.896;2022-12-18T09:24:13;102593.40;;;-6.14;89.78
37020;BME280;22932;52.442;16.896;2022-12-18T09:26:43;102594.95;;;-6.16;89.66
37020;BME280;22932;52.442;16.896;2022-12-18T09:29:13;102593.38;;;-6.16;89.81
37020;BME280;22932;52.442;16.896;2022-12-18T09:31:42;102598.13;;;-6.14;90.17
37020;BME280;22932;52.442;16.896;2022-12-18T09:34:12;102604.30;;;-6.12;90.21
37020;BME280;22932;52.442;16.896;2022-12-18T09:36:41;102605.36;;;-6.11;90.18
37020;BME280;22932;52.442;16.896;2022-12-18T09:39:11;102609.77;;;-6.10;90.15
37020;BME280;22932;52.442;16.896;2022-12-18T09:41:46;102603.10;;;-6.09;90.13
37020;BME280;22932;52.442;16.896;2022-12-18T09:44:27;102598.58;;;-6.06;90.26
37020;BME280;22932;52.442;16.896;2022-12-18T09:47:04;102599.14;;;-6.04;90.29
37020;BME280;22932;52.442;16.896;2022-12-18T09:49:38;102600.23;;;-6.01;90.41
37020;BME280;22932;52.442;16.896;2022-12-18T09:52:16;102600.63;;;-5.97;90.43
37020;BME280;22932;52.442;16.896;2022-12-18T09:54:50;102598.21;;;-5.93;90.61
37020;BME280;22932;52.442;16.896;2022-12-18T09:57:23;102598.75;;;-5.90;90.37
37020;BME280;22932;52.442;16.896;2022-12-18T09:59:57;102599.65;;;-5.88;90.29
37020;BME280;22932;52.442;16.896;2022-12-18T10:02:31;102599.68;;;-5.85;90.45
37020;BME280;22932;52.442;16.896;2022-12-18T10:05:07;102597.39;;;-5.85;90.32
37020;BME280;22932;52.442;16.896;2022-12-18T10:07:55;102594.95;;;-5.84;90.33
37020;BME280;22932;52.442;16.896;2022-12-18T10:10:37;102592.88;;;-5.82;90.62
37020;BME280;22932;52.442;16.896;2022-12-18T10:13:17;102586.25;;;-5.78;90.61
37020;BME280;22932;52.442;16.896;2022-12-18T10:16:00;102582.26;;;-5.74;90.88
37020;BME280;22932;52.442;16.896;2022-12-18T10:18:50;102587.22;;;-5.70;90.88
37020;BME280;22932;52.442;16.896;2022-12-18T10:21:30;102598.14;;;-5.66;90.70
37020;BME280;22932;52.442;16.896;2022-12-18T10:24:08;102600.80;;;-5.63;90.77
37020;BME280;22932;52.442;16.896;2022-12-18T10:26:43;102604.33;;;-5.61;90.64
37020;BME280;22932;52.442;16.896;2022-12-18T10:29:12;102604.88;;;-5.59;90.69
37020;BME280;22932;52.442;16.896;2022-12-18T10:31:42;102599.30;;;-5.56;90.61
37020;BME280;22932;52.442;16.896;2022-12-18T10:34:12;102600.72;;;-5.56;90.56
37020;BME280;22932;52.442;16.896;2022-12-18T10:36:42;102605.98;;;-5.57;90.48
37020;BME280;22932;52.442;16.896;2022-12-18T10:39:20;102608.61;;;-5.55;90.55
37020;BME280;22932;52.442;16.896;2022-12-18T10:41:50;102614.25;;;-5.54;90.68
37020;BME280;22932;52.442;16.896;2022-12-18T10:44:22;102610.05;;;-5.52;90.66
37020;BME280;22932;52.442;16.896;2022-12-18T10:47:02;102606.56;;;-5.49;90.94
37020;BME280;22932;52.442;16.896;2022-12-18T10:49:33;102603.61;;;-5.46;90.81
37020;BME280;22932;52.442;16.896;2022-12-18T10:52:12;102604.88;;;-5.43;91.00
37020;BME280;22932;52.442;16.896;2022-12-18T10:54:48;102601.75;;;-5.40;91.07
37020;BME280;22932;52.442;16.896;2022-12-18T10:57:31;102601.61;;;-5.36;91.03
37020;BME280;22932;52.442;16.896;2022-12-18T11:00:22;102602.00;;;-5.33;91.22
37020;BME280;22932;52.442;16.896;2022-12-18T11:02:52;102601.67;;;-5.29;91.18
37020;BME280;22932;52.442;16.896;2022-12-18T11:05:28;102598.71;;;-5.26;91.23
37020;BME280;22932;52.442;16.896;2022-12-18T11:07:59;102597.70;;;-5.21;91.21
37020;BME280;22932;52.442;16.896;2022-12-18T11:10:33;102589.47;;;-5.18;91.16
37020;BME280;22932;52.442;16.896;2022-12-18T11:13:19;102581.41;;;-5.16;91.22
37020;BME280;22932;52.442;16.896;2022-12-18T11:15:50;102583.20;;;-5.13;91.07
37020;BME280;22932;52.442;16.896;2022-12-18T11:18:24;102580.40;;;-5.11;90.97
37020;BME280;22932;52.442;16.896;2022-12-18T11:20:57;102587.09;;;-5.10;90.96
37020;BME280;22932;52.442;16.896;2022-12-18T11:23:27;102591.30;;;-5.09;90.94
37020;BME280;22932;52.442;16.896;2022-12-18T11:25:59;102587.99;;;-5.08;90.85
37020;BME280;22932;52.442;16.896;2022-12-18T11:28:36;102584.13;;;-5.06;91.06
37020;BME280;22932;52.442;16.896;2022-12-18T11:31:22;102581.16;;;-5.05;90.93
37020;BME280;22932;52.442;16.896;2022-12-18T11:33:58;102573.42;;;-5.04;90.84
37020;BME280;22932;52.442;16.896;2022-12-18T11:36:33;102571.33;;;-5.03;90.79
37020;BME280;22932;52.442;16.896;2022-12-18T11:39:13;102576.09;;;-5.02;90.90
37020;BME280;22932;52.442;16.896;2022-12-18T11:41:48;102575.75;;;-5.00;90.93
37020;BME280;22932;52.442;16.896;2022-12-18T11:44:45;102576.11;;;-4.98;91.00
37020;BME280;22932;52.442;16.896;2022-12-18T11:47:26;102580.87;;;-4.96;90.96
37020;BME280;22932;52.442;16.896;2022-12-18T11:50:01;102576.84;;;-4.94;90.96
37020;BME280;22932;52.442;16.896;2022-12-18T11:52:36;102577.36;;;-4.94;90.98
37020;BME280;22932;52.442;16.896;2022-12-18T11:55:13;102577.91;;;-4.92;91.03
37020;BME280;22932;52.442;16.896;2022-12-18T11:57:55;102587.58;;;-4.90;91.07
37020;BME280;22932;52.442;16.896;2022-12-18T12:00:30;102594.28;;;-4.88;91.06
37020;BME280;22932;52.442;16.896;2022-12-18T12:03:24;102599.20;;;-4.87;90.85
37020;BME280;22932;52.442;16.896;2022-12-18T12:06:05;102594.14;;;-4.85;90.94
37020;BME280;22932;52.442;16.896;2022-12-18T12:08:46;102595.73;;;-4.82;90.93
37020;BME280;22932;52.442;16.896;2022-12-18T12:11:24;102599.80;;;-4.80;91.02
37020;BME280;22932;52.442;16.896;2022-12-18T12:14:10;102600.17;;;-4.76;91.16
37020;BME280;22932;52.442;16.896;2022-12-18T12:16:47;102605.63;;;-4.75;90.90
37020;BME280;22932;52.442;16.896;2022-12-18T12:19:29;102604.77;;;-4.74;90.88
37020;BME280;22932;52.442;16.896;2022-12-18T12:22:08;102606.87;;;-4.73;90.86
37020;BME280;22932;52.442;16.896;2022-12-18T12:24:49;102606.55;;;-4.71;90.81
37020;BME280;22932;52.442;16.896;2022-12-18T12:27:26;102614.98;;;-4.70;90.76
37020;BME280;22932;52.442;16.896;2022-12-18T12:30:16;102621.48;;;-4.70;90.62
37020;BME280;22932;52.442;16.896;2022-12-18T12:33:01;102622.55;;;-4.71;90.57
37020;BME280;22932;52.442;16.896;2022-12-18T12:35:42;102615.86;;;-4.72;90.34
37020;BME280;22932;52.442;16.896;2022-12-18T12:38:16;102613.74;;;-4.72;90.37
37020;BME280;22932;52.442;16.896;2022-12-18T12:40:51;102608.81;;;-4.72;90.38
37020;BME280;22932;52.442;16.896;2022-12-18T12:43:37;102609.54;;;-4.71;90.58
37020;BME280;22932;52.442;16.896;2022-12-18T12:46:10;102610.77;;;-4.71;90.47
37020;BME280;22932;52.442;16.896;2022-12-18T12:48:46;102608.84;;;-4.70;90.46
37020;BME280;22932;52.442;16.896;2022-12-18T12:51:18;102610.41;;;-4.69;90.57
37020;BME280;22932;52.442;16.896;2022-12-18T12:53:50;102607.98;;;-4.68;90.62
37020;BME280;22932;52.442;16.896;2022-12-18T12:56:22;102607.45;;;-4.67;90.76
37020;BME280;22932;52.442;16.896;2022-12-18T12:59:01;102606.41;;;-4.65;90.54
37020;BME280;22932;52.442;16.896;2022-12-18T13:01:43;102601.49;;;-4.64;90.66
37020;BME280;22932;52.442;16.896;2022-12-18T13:04:23;102595.52;;;-4.62;90.74
37020;BME280;22932;52.442;16.896;2022-12-18T13:07:00;102594.82;;;-4.61;90.66
37020;BME280;22932;52.442;16.896;2022-12-18T13:09:33;102588.84;;;-4.61;90.73
37020;BME280;22932;52.442;16.896;2022-12-18T13:12:08;102589.38;;;-4.62;90.43
37020;BME280;22932;52.442;16.896;2022-12-18T13:15:13;102589.16;;;-4.68;90.03
37020;BME280;22932;52.442;16.896;2022-12-18T13:17:50;102598.63;;;-4.72;90.03
37020;BME280;22932;52.442;16.896;2022-12-18T13:20:36;102603.53;;;-4.73;90.15
37020;BME280;22932;52.442;16.896;2022-12-18T15:26:06;102619.64;;;-5.41;90.33
37020;BME280;22932;52.442;16.896;2022-12-18T15:28:38;102616.47;;;-5.42;90.33
37020;BME280;22932;52.442;16.896;2022-12-18T15:31:23;102611.55;;;-5.43;90.18
37020;BME280;22932;52.442;16.896;2022-12-18T15:34:11;102616.60;;;-5.45;90.10
37020;BME280;22932;52.442;16.896;2022-12-18T15:36:42;102615.91;;;-5.47;90.17
37020;BME280;22932;52.442;16.896;2022-12-18T15:39:13;102615.17;;;-5.49;90.09
37020;BME280;22932;52.442;16.896;2022-12-18T15:41:44;102614.62;;;-5.51;90.09
37020;BME280;22932;52.442;16.896;2022-12-18T15:44:28;102615.14;;;-5.53;89.99
37020;BME280;22932;52.442;16.896;2022-12-18T15:46:57;102613.01;;;-5.56;89.93
37020;BME280;22932;52.442;16.896;2022-12-18T15:49:27;102602.27;;;-5.59;89.98
37020;BME280;22932;52.442;16.896;2022-12-18T15:51:59;102595.55;;;-5.61;89.94
37020;BME280;22932;52.442;16.896;2022-12-18T15:54:29;102588.66;;;-5.65;89.98
37020;BME280;22932;52.442;16.896;2022-12-18T15:57:16;102587.08;;;-5.66;90.11
37020;BME280;22932;52.442;16.896;2022-12-18T15:59:53;102588.47;;;-5.67;90.23
37020;BME280;22932;52.442;16.896;2022-12-18T16:02:25;102586.71;;;-5.68;90.19
37020;BME280;22932;52.442;16.896;2022-12-18T16:04:56;102585.63;;;-5.71;90.08
37020;BME280;22932;52.442;16.896;2022-12-18T16:07:26;102585.77;;;-5.75;89.84
37020;BME280;22932;52.442;16.896;2022-12-18T16:09:55;102589.05;;;-5.79;89.85
37020;BME280;22932;52.442;16.896;2022-12-18T16:12:26;102585.52;;;-5.81;89.90
37020;BME280;22932;52.442;16.896;2022-12-18T16:14:55;102581.98;;;-5.84;90.02
37020;BME280;22932;52.442;16.896;2022-12-18T16:17:25;102575.64;;;-5.85;90.15
37020;BME280;22932;52.442;16.896;2022-12-18T16:19:54;102576.34;;;-5.85;90.28
37020;BME280;22932;52.442;16.896;2022-12-18T16:22:26;102581.09;;;-5.84;90.33
37020;BME280;22932;52.442;16.896;2022-12-18T16:24:57;102580.73;;;-5.84;90.27
37020;BME280;22932;52.442;16.896;2022-12-18T16:27:25;102580.58;;;-5.84;90.48
37020;BME280;22932;52.442;16.896;2022-12-18T16:29:55;102593.23;;;-5.83;90.55
37020;BME280;22932;52.442;16.896;2022-12-18T16:32:24;102601.29;;;-5.84;90.47
37020;BME280;22932;52.442;16.896;2022-12-18T16:34:54;102605.65;;;-5.85;90.42
37020;BME280;22932;52.442;16.896;2022-12-18T16:37:28;102610.91;;;-5.86;90.43
37020;BME280;22932;52.442;16.896;2022-12-18T16:39:58;102622.14;;;-5.86;90.48
37020;BME280;22932;52.442;16.896;2022-12-18T16:42:27;102627.23;;;-5.86;90.48
37020;BME280;22932;52.442;16.896;2022-12-18T16:44:57;102625.30;;;-5.86;90.35
37020;BME280;22932;52.442;16.896;2022-12-18T16:47:26;102621.59;;;-5.87;90.34
37020;BME280;22932;52.442;16.896;2022-12-18T16:49:56;102614.90;;;-5.88;90.39
37020;BME280;22932;52.442;16.896;2022-12-18T16:52:25;102616.13;;;-5.89;90.36
37020;BME280;22932;52.442;16.896;2022-12-18T16:54:55;102614.53;;;-5.91;90.52
37020;BME280;22932;52.442;16.896;2022-12-18T16:57:25;102616.80;;;-5.92;90.37
37020;BME280;22932;52.442;16.896;2022-12-18T16:59:54;102620.65;;;-5.93;90.35
37020;BME280;22932;52.442;16.896;2022-12-18T17:02:25;102620.48;;;-5.94;90.37
37020;BME280;22932;52.442;16.896;2022-12-18T17:04:56;102615.20;;;-5.96;90.25
37020;BME280;22932;52.442;16.896;2022-12-18T17:07:27;102618.33;;;-5.98;90.28
37020;BME280;22932;52.442;16.896;2022-12-18T17:09:56;102614.98;;;-6.00;90.36
37020;BME280;22932;52.442;16.896;2022-12-18T17:12:26;102613.92;;;-6.00;90.47
37020;BME280;22932;52.442;16.896;2022-12-18T17:14:55;102610.59;;;-5.99;90.65
37020;BME280;22932;52.442;16.896;2022-12-18T17:17:25;102614.44;;;-6.00;90.41
37020;BME280;22932;52.442;16.896;2022-12-18T17:19:54;102610.23;;;-6.02;90.37
37020;BME280;22932;52.442;16.896;2022-12-18T17:22:24;102614.23;;;-6.03;90.34
37020;BME280;22932;52.442;16.896;2022-12-18T17:24:53;102614.23;;;-6.04;90.47
37020;BME280;22932;52.442;16.896;2022-12-18T17:27:23;102615.80;;;-6.04;90.37
37020;BME280;22932;52.442;16.896;2022-12-18T17:29:53;102619.83;;;-6.05;90.49
37020;BME280;22932;52.442;16.896;2022-12-18T17:32:22;102617.70;;;-6.06;90.33
37020;BME280;22932;52.442;16.896;2022-12-18T17:34:52;102614.87;;;-6.08;90.40
37020;BME280;22932;52.442;16.896;2022-12-18T17:37:21;102615.04;;;-6.10;90.25
37020;BME280;22932;52.442;16.896;2022-12-18T17:39:53;102617.28;;;-6.12;90.17
37020;BME280;22932;52.442;16.896;2022-12-18T17:42:22;102614.79;;;-6.15;90.13
37020;BME280;22932;52.442;16.896;2022-12-18T17:44:53;102617.38;;;-6.19;90.05
37020;BME280;22932;52.442;16.896;2022-12-18T17:47:23;102613.98;;;-6.23;90.02
37020;BME280;22932;52.442;16.896;2022-12-18T17:49:52;102611.64;;;-6.27;90.07
37020;BME280;22932;52.442;16.896;2022-12-18T17:52:21;102608.43;;;-6.32;90.07
37020;BME280;22932;52.442;16.896;2022-12-18T17:54:51;102607.15;;;-6.35;90.06
37020;BME280;22932;52.442;16.896;2022-12-18T17:57:20;102602.70;;;-6.39;89.99
37020;BME280;22932;52.442;16.896;2022-12-18T17:59:50;102610.36;;;-6.43;90.13
37020;BME280;22932;52.442;16.896;2022-12-18T18:02:20;102610.50;;;-6.46;90.14
37020;BME280;22932;52.442;16.896;2022-12-18T18:04:49;102609.29;;;-6.46;90.45
37020;BME280;22932;52.442;16.896;2022-12-18T18:07:19;102610.34;;;-6.46;90.55
37020;BME280;22932;52.442;16.896;2022-12-18T18:09:48;102608.23;;;-6.46;90.67
37020;BME280;22932;52.442;16.896;2022-12-18T18:12:18;102604.55;;;-6.45;90.63
37020;BME280;22932;52.442;16.896;2022-12-18T18:15:06;102601.41;;;-6.45;90.61
37020;BME280;22932;52.442;16.896;2022-12-18T18:17:35;102605.12;;;-6.43;90.86
37020;BME280;22932;52.442;16.896;2022-12-18T18:20:06;102592.31;;;-6.42;90.74
37020;BME280;22932;52.442;16.896;2022-12-18T18:22:36;102578.48;;;-6.42;90.80
37020;BME280;22932;52.442;16.896;2022-12-18T18:25:06;102569.88;;;-6.43;90.56
37020;BME280;22932;52.442;16.896;2022-12-18T18:27:36;102557.59;;;-6.45;90.60
37020;BME280;22932;52.442;16.896;2022-12-18T18:30:08;102556.86;;;-6.46;90.55
37020;BME280;22932;52.442;16.896;2022-12-18T18:32:38;102554.77;;;-6.46;90.66
37020;BME280;22932;52.442;16.896;2022-12-18T18:35:09;102565.11;;;-6.46;90.70
37020;BME280;22932;52.442;16.896;2022-12-18T18:37:39;102567.21;;;-6.46;90.87
37020;BME280;22932;52.442;16.896;2022-12-18T18:40:10;102566.69;;;-6.46;90.71
37020;BME280;22932;52.442;16.896;2022-12-18T18:42:40;102570.02;;;-6.46;90.79
37020;BME280;22932;52.442;16.896;2022-12-18T18:45:10;102569.48;;;-6.47;90.75
37020;BME280;22932;52.442;16.896;2022-12-18T18:47:40;102577.88;;;-6.48;90.52
37020;BME280;22932;52.442;16.896;2022-12-18T18:50:10;102571.35;;;-6.51;90.66
37020;BME280;22932;52.442;16.896;2022-12-18T18:52:40;102575.68;;;-6.54;90.69
37020;BME280;22932;52.442;16.896;2022-12-18T18:55:10;102596.71;;;-6.56;90.50
37020;BME280;22932;52.442;16.896;2022-12-18T18:57:39;102594.08;;;-6.56;90.52
37020;BME280;22932;52.442;16.896;2022-12-18T19:00:12;102600.52;;;-6.58;90.79
37020;BME280;22932;52.442;16.896;2022-12-18T19:02:42;102592.62;;;-6.59;90.63
37020;BME280;22932;52.442;16.896;2022-12-18T19:05:11;102600.15;;;-6.59;90.86
37020;BME280;22932;52.442;16.896;2022-12-18T19:07:41;102592.93;;;-6.61;90.55
37020;BME280;22932;52.442;16.896;2022-12-18T19:10:11;102592.20;;;-6.63;90.60
37020;BME280;22932;52.442;16.896;2022-12-18T19:12:40;102593.91;;;-6.67;90.41
37020;BME280;22932;52.442;16.896;2022-12-18T19:15:27;102591.05;;;-6.70;90.51
37020;BME280;22932;52.442;16.896;2022-12-18T19:17:57;102580.55;;;-6.70;90.75
37020;BME280;22932;52.442;16.896;2022-12-18T19:20:26;102580.73;;;-6.69;90.70
37020;BME280;22932;52.442;16.896;2022-12-18T19:22:57;102587.38;;;-6.70;90.77
37020;BME280;22932;52.442;16.896;2022-12-18T19:25:26;102581.95;;;-6.70;90.68
37020;BME280;22932;52.442;16.896;2022-12-18T19:28:00;102582.44;;;-6.72;90.74
37020;BME280;22932;52.442;16.896;2022-12-18T19:30:29;102578.39;;;-6.72;90.73
37020;BME280;22932;52.442;16.896;2022-12-18T19:32:59;102584.73;;;-6.72;90.58
37020;BME280;22932;52.442;16.896;2022-12-18T19:35:30;102580.53;;;-6.71;90.60
37020;BME280;22932;52.442;16.896;2022-12-18T19:38:00;102583.34;;;-6.71;90.72
37020;BME280;22932;52.442;16.896;2022-12-18T19:40:29;102575.80;;;-6.71;90.70
37020;BME280;22932;52.442;16.896;2022-12-18T19:42:59;102574.56;;;-6.72;90.57
37020;BME280;22932;52.442;16.896;2022-12-18T19:45:29;102574.23;;;-6.71;90.74
37020;BME280;22932;52.442;16.896;2022-12-18T19:47:58;102574.59;;;-6.70;90.68
37020;BME280;22932;52.442;16.896;2022-12-18T19:50:28;102578.98;;;-6.69;90.74
37020;BME280;22932;52.442;16.896;2022-12-18T19:52:57;102576.72;;;-6.68;90.78
37020;BME280;22932;52.442;16.896;2022-12-18T19:55:27;102577.61;;;-6.67;90.68
37020;BME280;22932;52.442;16.896;2022-12-18T19:57:57;102582.17;;;-6.66;90.63
37020;BME280;22932;52.442;16.896;2022-12-18T20:00:26;102589.19;;;-6.66;90.73
37020;BME280;22932;52.442;16.896;2022-12-18T20:02:56;102586.41;;;-6.64;90.58
37020;BME280;22932;52.442;16.896;2022-12-18T20:05:25;102596.76;;;-6.63;90.44
37020;BME280;22932;52.442;16.896;2022-12-18T20:07:55;102597.83;;;-6.62;90.55
37020;BME280;22932;52.442;16.896;2022-12-18T20:10:25;102593.97;;;-6.62;90.44
37020;BME280;22932;52.442;16.896;2022-12-18T20:12:54;102584.86;;;-6.62;90.53
37020;BME280;22932;52.442;16.896;2022-12-18T20:15:24;102586.63;;;-6.61;90.58
37020;BME280;22932;52.442;16.896;2022-12-18T20:17:53;102588.02;;;-6.61;90.48
37020;BME280;22932;52.442;16.896;2022-12-18T20:20:23;102588.02;;;-6.62;90.30
37020;BME280;22932;52.442;16.896;2022-12-18T20:22:52;102585.54;;;-6.64;90.10
37020;BME280;22932;52.442;16.896;2022-12-18T20:25:22;102587.10;;;-6.65;90.06
37020;BME280;22932;52.442;16.896;2022-12-18T20:27:51;102592.15;;;-6.68;89.99
37020;BME280;22932;52.442;16.896;2022-12-18T20:30:21;102587.05;;;-6.68;90.04
37020;BME280;22932;52.442;16.896;2022-12-18T20:32:50;102588.45;;;-6.68;90.11
37020;BME280;22932;52.442;16.896;2022-12-18T20:35:20;102590.39;;;-6.67;90.08
37020;BME280;22932;52.442;16.896;2022-12-18T20:37:49;102590.77;;;-6.66;90.14
37020;BME280;22932;52.442;16.896;2022-12-18T20:40:19;102588.86;;;-6.64;90.26
37020;BME280;22932;52.442;16.896;2022-12-18T20:42:48;102582.58;;;-6.62;90.32
37020;BME280;22932;52.442;16.896;2022-12-18T20:45:18;102586.63;;;-6.62;90.10
37020;BME280;22932;52.442;16.896;2022-12-18T20:47:48;102583.61;;;-6.63;90.05
37020;BME280;22932;52.442;16.896;2022-12-18T20:50:17;102581.15;;;-6.65;90.07
37020;BME280;22932;52.442;16.896;2022-12-18T20:52:47;102587.80;;;-6.65;90.09
37020;BME280;22932;52.442;16.896;2022-12-18T20:55:17;102588.16;;;-6.64;90.18